sensor_id;sensor_type;location;lat;lon;timestamp;pressure;altitude;pressure_sealevel;temperature;humidity
84861;BME280;75116;42.644;23.274;2024-02-16T00:00:16;93390.34;;;2.18;61.82
84861;BME280;75116;42.644;23.274;2024-02-16T00:02:42;93410.59;;;1.94;62.40
84861;BME280;75116;42.644;23.274;2024-02-16T00:05:09;93412.13;;;1.85;65.68
84861;BME280;75116;42.644;23.274;2024-02-16T00:07:37;93401.38;;;1.98;64.60
84861;BME280;75116;42.644;23.274;2024-02-16T00:10:03;93408.03;;;2.09;69.47
84861;BME280;75116;42.644;23.274;2024-02-16T00:12:32;93413.34;;;2.28;73.27
84861;BME280;75116;42.644;23.274;2024-02-16T00:14:59;93400.63;;;1.87;70.29
84861;BME280;75116;42.644;23.274;2024-02-16T00:17:25;93374.88;;;1.63;69.39
84861;BME280;75116;42.644;23.274;2024-02-16T00:19:55;93414.91;;;2.03;66.62
84861;BME280;75116;42.644;23.274;2024-02-16T00:22:21;93390.66;;;1.86;71.29
84861;BME280;75116;42.644;23.274;2024-02-16T00:24:47;93415.91;;;2.07;73.72
84861;BME280;75116;42.644;23.274;2024-02-16T00:27:13;93411.38;;;2.74;76.27
84861;BME280;75116;42.644;23.274;2024-02-16T00:29:40;93412.94;;;2.70;73.50
84861;BME280;75116;42.644;23.274;2024-02-16T00:32:06;93412.78;;;3.00;72.51
84861;BME280;75116;42.644;23.274;2024-02-16T00:34:40;93419.66;;;3.44;74.05
84861;BME280;75116;42.644;23.274;2024-02-16T00:37:07;93414.16;;;3.27;65.29
84861;BME280;75116;42.644;23.274;2024-02-16T00:39:40;93423.56;;;2.97;72.82
84861;BME280;75116;42.644;23.274;2024-02-16T00:42:06;93391.06;;;2.93;74.06
84861;BME280;75116;42.644;23.274;2024-02-16T00:44:32;93397.88;;;3.13;68.76
84861;BME280;75116;42.644;23.274;2024-02-16T00:46:57;93426.78;;;3.86;73.99
84861;BME280;75116;42.644;23.274;2024-02-16T00:49:23;93379.84;;;3.91;66.76
84861;BME280;75116;42.644;23.274;2024-02-16T00:51:49;93376.59;;;3.51;66.24
84861;BME280;75116;42.644;23.274;2024-02-16T00:54:16;93421.84;;;3.66;67.26
84861;BME280;75116;42.644;23.274;2024-02-16T00:56:42;93406.09;;;3.49;69.49
84861;BME280;75116;42.644;23.274;2024-02-16T00:59:08;93402.09;;;3.67;66.98
84861;BME280;75116;42.644;23.274;2024-02-16T01:01:35;93406.84;;;3.78;69.04
84861;BME280;75116;42.644;23.274;2024-02-16T01:04:01;93410.44;;;3.48;67.89
84861;BME280;75116;42.644;23.274;2024-02-16T01:06:28;93409.41;;;3.49;68.35
84861;BME280;75116;42.644;23.274;2024-02-16T01:08:53;93396.72;;;3.29;68.18
84861;BME280;75116;42.644;23.274;2024-02-16T01:11:19;93405.44;;;3.67;70.55
84861;BME280;75116;42.644;23.274;2024-02-16T01:13:46;93411.13;;;3.59;67.49
84861;BME280;75116;42.644;23.274;2024-02-16T01:16:11;93412.94;;;3.87;69.91
84861;BME280;75116;42.644;23.274;2024-02-16T01:18:37;93415.38;;;4.50;71.02
84861;BME280;75116;42.644;23.274;2024-02-16T01:21:03;93421.25;;;4.03;67.20
84861;BME280;75116;42.644;23.274;2024-02-16T01:23:29;93413.16;;;3.23;68.88
84861;BME280;75116;42.644;23.274;2024-02-16T01:25:55;93373.38;;;2.47;68.52
84861;BME280;75116;42.644;23.274;2024-02-16T01:28:20;93405.78;;;3.84;70.67
84861;BME280;75116;42.644;23.274;2024-02-16T01:30:47;93403.47;;;4.12;66.16
84861;BME280;75116;42.644;23.274;2024-02-16T01:33:12;93402.97;;;3.18;67.54
84861;BME280;75116;42.644;23.274;2024-02-16T01:35:38;93392.47;;;2.70;68.23
84861;BME280;75116;42.644;23.274;2024-02-16T01:38:04;93394.38;;;2.39;66.90
84861;BME280;75116;42.644;23.274;2024-02-16T01:40:31;93395.06;;;2.55;68.16
84861;BME280;75116;42.644;23.274;2024-02-16T01:42:57;93398.44;;;2.50;67.06
84861;BME280;75116;42.644;23.274;2024-02-16T01:45:22;93397.81;;;2.79;70.12
84861;BME280;75116;42.644;23.274;2024-02-16T01:47:50;93406.88;;;2.51;69.68
84861;BME280;75116;42.644;23.274;2024-02-16T01:50:17;93401.97;;;2.59;69.87
84861;BME280;75116;42.644;23.274;2024-02-16T01:52:47;93384.59;;;2.51;70.58
84861;BME280;75116;42.644;23.274;2024-02-16T01:55:13;93389.88;;;2.75;69.29
84861;BME280;75116;42.644;23.274;2024-02-16T01:57:40;93377.59;;;2.72;71.66
84861;BME280;75116;42.644;23.274;2024-02-16T02:00:08;93386.34;;;2.66;67.45
84861;BME280;75116;42.644;23.274;2024-02-16T02:02:35;93388.69;;;2.52;67.68
84861;BME280;75116;42.644;23.274;2024-02-16T02:05:01;93352.78;;;2.08;68.13
84861;BME280;75116;42.644;23.274;2024-02-16T02:07:27;93373.69;;;2.30;65.69
84861;BME280;75116;42.644;23.274;2024-02-16T02:09:53;93387.72;;;2.43;65.75
84861;BME280;75116;42.644;23.274;2024-02-16T02:12:19;93391.00;;;2.54;69.65
84861;BME280;75116;42.644;23.274;2024-02-16T02:14:44;93392.53;;;2.55;64.81
84861;BME280;75116;42.644;23.274;2024-02-16T02:17:12;93384.94;;;2.29;67.68
84861;BME280;75116;42.644;23.274;2024-02-16T02:19:37;93373.31;;;2.62;71.55
84861;BME280;75116;42.644;23.274;2024-02-16T02:22:03;93369.56;;;2.45;68.44
84861;BME280;75116;42.644;23.274;2024-02-16T02:24:28;93385.91;;;2.49;69.58
84861;BME280;75116;42.644;23.274;2024-02-16T02:26:54;93393.03;;;2.62;63.80
84861;BME280;75116;42.644;23.274;2024-02-16T02:29:20;93383.41;;;2.33;67.44
84861;BME280;75116;42.644;23.274;2024-02-16T02:31:45;93393.66;;;2.18;64.83
84861;BME280;75116;42.644;23.274;2024-02-16T02:34:11;93383.69;;;2.17;74.70
84861;BME280;75116;42.644;23.274;2024-02-16T02:36:37;93402.06;;;2.98;72.71
84861;BME280;75116;42.644;23.274;2024-02-16T02:39:02;93371.97;;;3.19;70.81
84861;BME280;75116;42.644;23.274;2024-02-16T02:41:28;93373.31;;;3.07;70.19
84861;BME280;75116;42.644;23.274;2024-02-16T02:43:53;93392.66;;;2.84;69.02
84861;BME280;75116;42.644;23.274;2024-02-16T02:46:19;93387.22;;;3.35;69.29
84861;BME280;75116;42.644;23.274;2024-02-16T02:48:45;93386.16;;;3.01;69.67
84861;BME280;75116;42.644;23.274;2024-02-16T02:51:11;93392.25;;;2.56;69.43
84861;BME280;75116;42.644;23.274;2024-02-16T02:53:37;93395.59;;;2.52;67.33
84861;BME280;75116;42.644;23.274;2024-02-16T02:56:03;93390.53;;;2.36;68.75
84861;BME280;75116;42.644;23.274;2024-02-16T02:58:29;93397.16;;;2.48;68.63
84861;BME280;75116;42.644;23.274;2024-02-16T03:00:55;93381.25;;;2.56;72.00
84861;BME280;75116;42.644;23.274;2024-02-16T03:03:21;93392.19;;;2.71;70.77
84861;BME280;75116;42.644;23.274;2024-02-16T03:05:47;93372.28;;;2.58;71.30
84861;BME280;75116;42.644;23.274;2024-02-16T03:08:12;93388.28;;;2.84;67.10
84861;BME280;75116;42.644;23.274;2024-02-16T03:10:38;93364.00;;;2.22;67.88
84861;BME280;75116;42.644;23.274;2024-02-16T03:13:04;93378.75;;;2.40;68.98
84861;BME280;75116;42.644;23.274;2024-02-16T03:15:32;93383.06;;;2.55;66.75
84861;BME280;75116;42.644;23.274;2024-02-16T03:17:58;93385.66;;;2.40;69.22
84861;BME280;75116;42.644;23.274;2024-02-16T03:20:24;93390.53;;;2.36;66.32
84861;BME280;75116;42.644;23.274;2024-02-16T03:22:50;93388.00;;;2.31;68.93
84861;BME280;75116;42.644;23.274;2024-02-16T03:25:16;93385.16;;;2.43;69.17
84861;BME280;75116;42.644;23.274;2024-02-16T03:27:42;93386.13;;;2.52;66.47
84861;BME280;75116;42.644;23.274;2024-02-16T03:30:08;93389.44;;;2.58;65.43
84861;BME280;75116;42.644;23.274;2024-02-16T03:32:34;93391.84;;;2.34;69.78
84861;BME280;75116;42.644;23.274;2024-02-16T03:35:00;93398.75;;;2.23;65.22
84861;BME280;75116;42.644;23.274;2024-02-16T03:37:25;93395.25;;;1.89;68.63
84861;BME280;75116;42.644;23.274;2024-02-16T03:39:51;93388.31;;;2.15;68.95
84861;BME280;75116;42.644;23.274;2024-02-16T03:42:19;93392.63;;;2.24;66.95
84861;BME280;75116;42.644;23.274;2024-02-16T03:44:45;93384.00;;;2.00;71.57
84861;BME280;75116;42.644;23.274;2024-02-16T03:47:10;93373.50;;;2.11;66.90
84861;BME280;75116;42.644;23.274;2024-02-16T03:49:37;93387.97;;;2.47;73.89
84861;BME280;75116;42.644;23.274;2024-02-16T03:52:03;93393.44;;;2.74;74.76
84861;BME280;75116;42.644;23.274;2024-02-16T03:54:29;93391.19;;;3.17;70.87
84861;BME280;75116;42.644;23.274;2024-02-16T03:56:55;93370.63;;;2.28;67.61
84861;BME280;75116;42.644;23.274;2024-02-16T03:59:21;93384.47;;;2.17;69.11
84861;BME280;75116;42.644;23.274;2024-02-16T04:01:46;93398.25;;;2.31;69.51
84861;BME280;75116;42.644;23.274;2024-02-16T04:04:12;93395.34;;;2.53;67.37
84861;BME280;75116;42.644;23.274;2024-02-16T04:06:38;93382.06;;;2.41;66.63
84861;BME280;75116;42.644;23.274;2024-02-16T04:09:04;93363.47;;;2.25;67.82
84861;BME280;75116;42.644;23.274;2024-02-16T04:11:31;93383.41;;;2.33;66.96
84861;BME280;75116;42.644;23.274;2024-02-16T04:13:57;93388.47;;;2.49;65.63
84861;BME280;75116;42.644;23.274;2024-02-16T04:16:23;93391.84;;;2.34;67.63
84861;BME280;75116;42.644;23.274;2024-02-16T04:18:50;93375.13;;;2.52;66.49
84861;BME280;75116;42.644;23.274;2024-02-16T04:21:16;93360.16;;;2.30;66.90
84861;BME280;75116;42.644;23.274;2024-02-16T04:23:42;93378.28;;;2.33;66.05
84861;BME280;75116;42.644;23.274;2024-02-16T04:26:08;93383.13;;;2.35;68.95
84861;BME280;75116;42.644;23.274;2024-02-16T04:28:34;93386.69;;;2.44;68.04
84861;BME280;75116;42.644;23.274;2024-02-16T04:31:00;93381.75;;;2.63;67.69
84861;BME280;75116;42.644;23.274;2024-02-16T04:33:25;93387.03;;;2.82;70.93
84861;BME280;75116;42.644;23.274;2024-02-16T04:35:51;93391.72;;;2.64;69.93
84861;BME280;75116;42.644;23.274;2024-02-16T04:38:17;93386.38;;;2.61;72.80
84861;BME280;75116;42.644;23.274;2024-02-16T04:40:43;93389.09;;;2.80;64.67
84861;BME280;75116;42.644;23.274;2024-02-16T04:43:09;93392.91;;;2.18;64.83
84861;BME280;75116;42.644;23.274;2024-02-16T04:45:34;93397.00;;;2.19;72.57
84861;BME280;75116;42.644;23.274;2024-02-16T04:48:07;93381.66;;;2.14;72.00
84861;BME280;75116;42.644;23.274;2024-02-16T04:50:34;93402.09;;;2.24;69.83
84861;BME280;75116;42.644;23.274;2024-02-16T04:53:00;93384.78;;;1.95;73.96
84861;BME280;75116;42.644;23.274;2024-02-16T04:55:27;93374.31;;;1.92;72.65
84861;BME280;75116;42.644;23.274;2024-02-16T04:57:56;93387.75;;;2.33;73.84
84861;BME280;75116;42.644;23.274;2024-02-16T05:00:22;93395.66;;;2.36;69.35
84861;BME280;75116;42.644;23.274;2024-02-16T05:02:48;93389.38;;;2.08;70.54
84861;BME280;75116;42.644;23.274;2024-02-16T05:05:14;93392.22;;;1.92;69.18
84861;BME280;75116;42.644;23.274;2024-02-16T05:07:43;93401.59;;;2.06;69.76
84861;BME280;75116;42.644;23.274;2024-02-16T05:10:09;93391.63;;;2.15;71.63
84861;BME280;75116;42.644;23.274;2024-02-16T05:12:35;93408.72;;;2.25;69.04
84861;BME280;75116;42.644;23.274;2024-02-16T05:15:00;93403.13;;;2.18;74.15
84861;BME280;75116;42.644;23.274;2024-02-16T05:17:26;93380.94;;;1.88;66.34
84861;BME280;75116;42.644;23.274;2024-02-16T05:19:52;93385.84;;;1.48;68.27
84861;BME280;75116;42.644;23.274;2024-02-16T05:22:19;93399.66;;;1.58;74.47
84861;BME280;75116;42.644;23.274;2024-02-16T05:24:47;93375.63;;;1.38;70.39
84861;BME280;75116;42.644;23.274;2024-02-16T05:27:13;93414.44;;;1.50;70.19
84861;BME280;75116;42.644;23.274;2024-02-16T05:29:42;93410.09;;;1.46;73.32
84861;BME280;75116;42.644;23.274;2024-02-16T05:32:08;93429.78;;;1.61;72.71
84861;BME280;75116;42.644;23.274;2024-02-16T05:34:38;93431.03;;;1.89;75.47
84861;BME280;75116;42.644;23.274;2024-02-16T05:37:07;93415.19;;;1.87;68.99
84861;BME280;75116;42.644;23.274;2024-02-16T05:39:36;93396.03;;;1.89;72.98
84861;BME280;75116;42.644;23.274;2024-02-16T05:42:08;93441.06;;;3.24;67.05
84861;BME280;75116;42.644;23.274;2024-02-16T05:44:34;93438.56;;;4.16;59.95
84861;BME280;75116;42.644;23.274;2024-02-16T05:46:59;93409.22;;;4.75;63.14
84861;BME280;75116;42.644;23.274;2024-02-16T05:49:25;93394.31;;;6.45;57.57
84861;BME280;75116;42.644;23.274;2024-02-16T05:51:51;93432.84;;;8.39;55.97
84861;BME280;75116;42.644;23.274;2024-02-16T05:54:46;93405.97;;;7.87;53.29
84861;BME280;75116;42.644;23.274;2024-02-16T05:57:12;93402.84;;;9.35;50.39
84861;BME280;75116;42.644;23.274;2024-02-16T05:59:38;93417.00;;;9.72;47.98
84861;BME280;75116;42.644;23.274;2024-02-16T06:02:04;93409.47;;;10.05;48.04
84861;BME280;75116;42.644;23.274;2024-02-16T06:04:31;93422.72;;;9.00;52.66
84861;BME280;75116;42.644;23.274;2024-02-16T06:06:56;93444.38;;;11.01;45.00
84861;BME280;75116;42.644;23.274;2024-02-16T06:09:22;93418.06;;;8.62;50.61
84861;BME280;75116;42.644;23.274;2024-02-16T06:11:47;93423.97;;;9.02;49.57
84861;BME280;75116;42.644;23.274;2024-02-16T06:14:14;93443.31;;;8.12;50.69
84861;BME280;75116;42.644;23.274;2024-02-16T06:16:40;93442.69;;;10.03;48.61
84861;BME280;75116;42.644;23.274;2024-02-16T06:19:07;93394.44;;;10.54;44.46
84861;BME280;75116;42.644;23.274;2024-02-16T06:21:35;93397.31;;;9.97;46.09
84861;BME280;75116;42.644;23.274;2024-02-16T06:24:00;93409.16;;;13.23;37.17
84861;BME280;75116;42.644;23.274;2024-02-16T06:26:26;93426.44;;;10.87;43.69
84861;BME280;75116;42.644;23.274;2024-02-16T06:28:51;93418.75;;;10.06;46.23
84861;BME280;75116;42.644;23.274;2024-02-16T06:31:17;93433.34;;;13.23;37.55
84861;BME280;75116;42.644;23.274;2024-02-16T06:33:43;93434.03;;;17.57;29.28
84861;BME280;75116;42.644;23.274;2024-02-16T06:36:09;93440.00;;;20.16;24.56
84861;BME280;75116;42.644;23.274;2024-02-16T06:38:36;93421.03;;;19.78;26.27
84861;BME280;75116;42.644;23.274;2024-02-16T06:41:02;93419.84;;;21.27;22.56
84861;BME280;75116;42.644;23.274;2024-02-16T06:43:28;93412.81;;;22.22;21.57
84861;BME280;75116;42.644;23.274;2024-02-16T06:45:54;93419.53;;;23.37;21.35
84861;BME280;75116;42.644;23.274;2024-02-16T06:48:22;93437.81;;;22.66;19.19
84861;BME280;75116;42.644;23.274;2024-02-16T06:50:48;93427.94;;;23.70;19.19
84861;BME280;75116;42.644;23.274;2024-02-16T06:53:13;93445.09;;;24.84;17.58
84861;BME280;75116;42.644;23.274;2024-02-16T06:55:39;93440.09;;;22.64;18.58
84861;BME280;75116;42.644;23.274;2024-02-16T06:58:05;93413.91;;;22.24;19.14
84861;BME280;75116;42.644;23.274;2024-02-16T07:00:30;93385.94;;;22.90;19.30
84861;BME280;75116;42.644;23.274;2024-02-16T07:02:58;93446.59;;;24.24;20.03
84861;BME280;75116;42.644;23.274;2024-02-16T07:05:24;93435.31;;;18.34;28.17
84861;BME280;75116;42.644;23.274;2024-02-16T07:07:49;93418.84;;;22.81;19.15
84861;BME280;75116;42.644;23.274;2024-02-16T07:10:15;93417.03;;;25.57;16.50
84861;BME280;75116;42.644;23.274;2024-02-16T07:12:41;93417.94;;;25.46;17.21
84861;BME280;75116;42.644;23.274;2024-02-16T07:15:07;93416.66;;;25.35;18.30
84861;BME280;75116;42.644;23.274;2024-02-16T07:17:33;93442.94;;;22.94;21.19
84861;BME280;75116;42.644;23.274;2024-02-16T07:20:00;93433.34;;;25.98;16.70
84861;BME280;75116;42.644;23.274;2024-02-16T07:22:29;93428.72;;;27.27;14.71
84861;BME280;75116;42.644;23.274;2024-02-16T07:24:54;93441.28;;;27.55;14.70
84861;BME280;75116;42.644;23.274;2024-02-16T07:27:23;93422.50;;;27.91;13.22
84861;BME280;75116;42.644;23.274;2024-02-16T07:29:49;93399.78;;;25.88;16.23
84861;BME280;75116;42.644;23.274;2024-02-16T07:32:16;93437.53;;;27.08;14.31
84861;BME280;75116;42.644;23.274;2024-02-16T07:34:45;93439.94;;;26.66;15.29
84861;BME280;75116;42.644;23.274;2024-02-16T07:37:13;93419.28;;;27.84;15.27
84861;BME280;75116;42.644;23.274;2024-02-16T07:39:38;93405.69;;;28.49;13.14
84861;BME280;75116;42.644;23.274;2024-02-16T07:42:06;93402.28;;;26.15;15.55
84861;BME280;75116;42.644;23.274;2024-02-16T07:44:35;93405.16;;;28.00;13.87
84861;BME280;75116;42.644;23.274;2024-02-16T07:47:01;93398.53;;;25.53;15.48
84861;BME280;75116;42.644;23.274;2024-02-16T07:49:26;93443.00;;;26.48;15.34
84861;BME280;75116;42.644;23.274;2024-02-16T07:51:52;93453.66;;;24.38;16.87
84861;BME280;75116;42.644;23.274;2024-02-16T07:54:18;93423.56;;;22.52;20.95
84861;BME280;75116;42.644;23.274;2024-02-16T07:56:43;93423.72;;;22.24;18.42
84861;BME280;75116;42.644;23.274;2024-02-16T07:59:11;93440.53;;;21.43;20.96
84861;BME280;75116;42.644;23.274;2024-02-16T08:01:37;93454.84;;;22.58;19.57
84861;BME280;75116;42.644;23.274;2024-02-16T08:04:06;93396.72;;;21.88;20.33
84861;BME280;75116;42.644;23.274;2024-02-16T08:06:31;93419.66;;;20.09;21.02
84861;BME280;75116;42.644;23.274;2024-02-16T08:08:57;93409.81;;;22.02;20.74
84861;BME280;75116;42.644;23.274;2024-02-16T08:11:23;93422.69;;;14.53;28.03
84861;BME280;75116;42.644;23.274;2024-02-16T08:13:49;93447.28;;;9.80;38.52
84861;BME280;75116;42.644;23.274;2024-02-16T08:16:14;93399.53;;;15.33;30.46
84861;BME280;75116;42.644;23.274;2024-02-16T08:18:40;93416.44;;;18.58;23.78
84861;BME280;75116;42.644;23.274;2024-02-16T08:21:05;93426.44;;;16.50;26.45
84861;BME280;75116;42.644;23.274;2024-02-16T08:23:31;93404.34;;;9.71;38.25
84861;BME280;75116;42.644;23.274;2024-02-16T08:25:57;93379.66;;;9.99;38.50
84861;BME280;75116;42.644;23.274;2024-02-16T08:28:26;93395.41;;;11.29;36.26
84861;BME280;75116;42.644;23.274;2024-02-16T08:30:51;93459.81;;;10.98;36.62
84861;BME280;75116;42.644;23.274;2024-02-16T08:33:17;93451.72;;;12.82;33.64
84861;BME280;75116;42.644;23.274;2024-02-16T08:35:43;93450.41;;;12.63;35.35
84861;BME280;75116;42.644;23.274;2024-02-16T08:38:09;93427.19;;;16.96;26.67
84861;BME280;75116;42.644;23.274;2024-02-16T08:40:40;93423.28;;;19.73;23.82
84861;BME280;75116;42.644;23.274;2024-02-16T08:43:05;93449.25;;;11.03;36.86
84861;BME280;75116;42.644;23.274;2024-02-16T08:45:33;93406.41;;;13.32;33.02
84861;BME280;75116;42.644;23.274;2024-02-16T08:47:59;93431.13;;;9.23;40.74
84861;BME280;75116;42.644;23.274;2024-02-16T08:50:26;93461.41;;;10.35;38.64
84861;BME280;75116;42.644;23.274;2024-02-16T08:52:52;93462.31;;;13.74;33.18
84861;BME280;75116;42.644;23.274;2024-02-16T08:55:18;93460.41;;;15.53;29.66
84861;BME280;75116;42.644;23.274;2024-02-16T08:57:43;93469.22;;;8.29;42.33
84861;BME280;75116;42.644;23.274;2024-02-16T09:00:09;93466.28;;;9.32;42.46
84861;BME280;75116;42.644;23.274;2024-02-16T09:02:37;93472.88;;;8.99;41.46
84861;BME280;75116;42.644;23.274;2024-02-16T09:05:04;93472.88;;;9.73;41.00
84861;BME280;75116;42.644;23.274;2024-02-16T09:07:30;93451.53;;;11.34;38.55
84861;BME280;75116;42.644;23.274;2024-02-16T09:09:55;93460.72;;;12.72;34.37
84861;BME280;75116;42.644;23.274;2024-02-16T09:12:22;93440.03;;;16.59;29.77
84861;BME280;75116;42.644;23.274;2024-02-16T09:14:48;93464.50;;;14.00;34.49
84861;BME280;75116;42.644;23.274;2024-02-16T09:17:13;93472.47;;;12.45;33.86
84861;BME280;75116;42.644;23.274;2024-02-16T09:19:39;93479.91;;;16.14;30.04
84861;BME280;75116;42.644;23.274;2024-02-16T09:22:04;93453.47;;;13.51;32.42
84861;BME280;75116;42.644;23.274;2024-02-16T09:24:32;93479.94;;;11.01;37.59
84861;BME280;75116;42.644;23.274;2024-02-16T09:26:58;93448.50;;;11.94;37.90
84861;BME280;75116;42.644;23.274;2024-02-16T09:29:29;93480.59;;;14.58;34.94
84861;BME280;75116;42.644;23.274;2024-02-16T09:31:55;93478.25;;;15.51;28.47
84861;BME280;75116;42.644;23.274;2024-02-16T09:34:21;93443.03;;;9.76;39.83
84861;BME280;75116;42.644;23.274;2024-02-16T09:36:49;93485.78;;;9.99;40.05
84861;BME280;75116;42.644;23.274;2024-02-16T09:39:15;93472.41;;;10.70;39.42
84861;BME280;75116;42.644;23.274;2024-02-16T09:41:42;93436.13;;;12.82;34.50
84861;BME280;75116;42.644;23.274;2024-02-16T09:44:11;93413.66;;;10.82;36.96
84861;BME280;75116;42.644;23.274;2024-02-16T09:46:36;93426.44;;;9.77;42.21
84861;BME280;75116;42.644;23.274;2024-02-16T09:49:03;93481.97;;;10.22;40.11
84861;BME280;75116;42.644;23.274;2024-02-16T09:51:29;93420.34;;;9.73;41.38
84861;BME280;75116;42.644;23.274;2024-02-16T09:53:55;93467.56;;;13.01;34.89
84861;BME280;75116;42.644;23.274;2024-02-16T09:56:21;93450.13;;;7.85;45.46
84861;BME280;75116;42.644;23.274;2024-02-16T09:58:47;93473.19;;;7.46;47.97
84861;BME280;75116;42.644;23.274;2024-02-16T10:01:19;93450.34;;;9.74;41.08
84861;BME280;75116;42.644;23.274;2024-02-16T10:03:48;93454.94;;;7.78;46.60
84861;BME280;75116;42.644;23.274;2024-02-16T10:06:15;93450.53;;;8.86;43.43
84861;BME280;75116;42.644;23.274;2024-02-16T10:08:51;93465.22;;;9.42;42.07
84861;BME280;75116;42.644;23.274;2024-02-16T10:11:18;93453.25;;;11.30;39.72
84861;BME280;75116;42.644;23.274;2024-02-16T10:13:57;93448.22;;;12.08;37.56
84861;BME280;75116;42.644;23.274;2024-02-16T10:16:24;93432.19;;;9.30;43.45
84861;BME280;75116;42.644;23.274;2024-02-16T10:18:49;93434.81;;;8.73;43.36
84861;BME280;75116;42.644;23.274;2024-02-16T10:21:24;93436.88;;;8.01;46.27
84861;BME280;75116;42.644;23.274;2024-02-16T10:23:59;93430.53;;;9.34;42.28
84861;BME280;75116;42.644;23.274;2024-02-16T10:26:25;93419.44;;;7.62;47.30
84861;BME280;75116;42.644;23.274;2024-02-16T10:28:54;93437.88;;;7.69;45.89
84861;BME280;75116;42.644;23.274;2024-02-16T10:31:22;93434.53;;;7.68;46.03
84861;BME280;75116;42.644;23.274;2024-02-16T10:33:56;93428.97;;;9.16;42.36
84861;BME280;75116;42.644;23.274;2024-02-16T10:36:24;93422.13;;;9.03;43.71
84861;BME280;75116;42.644;23.274;2024-02-16T10:38:52;93423.25;;;10.52;44.33
84861;BME280;75116;42.644;23.274;2024-02-16T10:41:18;93433.56;;;9.36;42.73
84861;BME280;75116;42.644;23.274;2024-02-16T10:43:48;93436.06;;;6.97;48.71
84861;BME280;75116;42.644;23.274;2024-02-16T10:46:16;93395.06;;;6.32;50.75
84861;BME280;75116;42.644;23.274;2024-02-16T10:48:41;93428.66;;;7.32;49.96
84861;BME280;75116;42.644;23.274;2024-02-16T10:51:08;93418.63;;;7.97;50.47
84861;BME280;75116;42.644;23.274;2024-02-16T10:53:35;93421.03;;;8.87;48.09
84861;BME280;75116;42.644;23.274;2024-02-16T10:56:01;93424.78;;;9.72;47.02
84861;BME280;75116;42.644;23.274;2024-02-16T10:58:27;93384.06;;;7.76;46.68
84861;BME280;75116;42.644;23.274;2024-02-16T11:00:56;93384.88;;;7.40;47.39
84861;BME280;75116;42.644;23.274;2024-02-16T11:03:25;93420.22;;;6.90;49.35
84861;BME280;75116;42.644;23.274;2024-02-16T11:05:52;93409.69;;;7.14;50.37
84861;BME280;75116;42.644;23.274;2024-02-16T11:08:19;93415.16;;;7.35;49.93
84861;BME280;75116;42.644;23.274;2024-02-16T11:10:59;93401.69;;;7.60;46.87
84861;BME280;75116;42.644;23.274;2024-02-16T11:13:26;93388.06;;;7.23;47.46
84861;BME280;75116;42.644;23.274;2024-02-16T11:16:17;93399.09;;;8.05;49.63
84861;BME280;75116;42.644;23.274;2024-02-16T11:18:45;93399.59;;;8.46;46.59
84861;BME280;75116;42.644;23.274;2024-02-16T11:21:15;93377.00;;;7.23;49.21
84861;BME280;75116;42.644;23.274;2024-02-16T11:23:41;93397.09;;;7.12;49.02
84861;BME280;75116;42.644;23.274;2024-02-16T11:26:12;93400.28;;;6.95;49.51
84861;BME280;75116;42.644;23.274;2024-02-16T11:28:40;93397.47;;;7.86;52.04
84861;BME280;75116;42.644;23.274;2024-02-16T11:31:06;93400.78;;;8.09;47.52
84861;BME280;75116;42.644;23.274;2024-02-16T11:33:32;93389.53;;;7.16;48.84
84861;BME280;75116;42.644;23.274;2024-02-16T11:36:03;93395.59;;;7.78;52.07
84861;BME280;75116;42.644;23.274;2024-02-16T11:38:35;93390.09;;;8.25;50.40
84861;BME280;75116;42.644;23.274;2024-02-16T11:41:03;93389.69;;;8.71;45.12
84861;BME280;75116;42.644;23.274;2024-02-16T11:43:33;93370.19;;;8.56;43.91
84861;BME280;75116;42.644;23.274;2024-02-16T11:45:59;93384.16;;;8.55;45.53
84861;BME280;75116;42.644;23.274;2024-02-16T11:48:26;93385.94;;;8.15;46.65
84861;BME280;75116;42.644;23.274;2024-02-16T11:51:02;93384.16;;;7.93;46.19
84861;BME280;75116;42.644;23.274;2024-02-16T11:53:28;93384.69;;;8.04;46.68
84861;BME280;75116;42.644;23.274;2024-02-16T11:55:54;93377.97;;;7.49;48.29
84861;BME280;75116;42.644;23.274;2024-02-16T11:58:20;93380.38;;;8.61;48.27
84861;BME280;75116;42.644;23.274;2024-02-16T12:00:48;93378.66;;;8.48;47.80
84861;BME280;75116;42.644;23.274;2024-02-16T12:03:26;93381.78;;;8.76;46.28
84861;BME280;75116;42.644;23.274;2024-02-16T12:05:57;93339.97;;;8.83;43.82
84861;BME280;75116;42.644;23.274;2024-02-16T12:08:23;93378.81;;;9.26;43.65
84861;BME280;75116;42.644;23.274;2024-02-16T12:10:50;93372.69;;;8.87;44.31
84861;BME280;75116;42.644;23.274;2024-02-16T12:13:19;93325.09;;;8.88;49.30
84861;BME280;75116;42.644;23.274;2024-02-16T12:15:46;93369.69;;;9.28;43.63
84861;BME280;75116;42.644;23.274;2024-02-16T12:18:25;93371.56;;;8.62;45.84
84861;BME280;75116;42.644;23.274;2024-02-16T12:21:00;93354.16;;;8.85;45.03
84861;BME280;75116;42.644;23.274;2024-02-16T12:23:27;93350.81;;;8.05;47.69
84861;BME280;75116;42.644;23.274;2024-02-16T12:25:53;93342.31;;;8.36;45.29
84861;BME280;75116;42.644;23.274;2024-02-16T12:28:19;93363.75;;;8.45;46.13
84861;BME280;75116;42.644;23.274;2024-02-16T12:30:47;93329.34;;;8.27;46.41
84861;BME280;75116;42.644;23.274;2024-02-16T12:33:13;93349.22;;;8.18;47.58
84861;BME280;75116;42.644;23.274;2024-02-16T12:35:39;93346.78;;;8.22;46.49
84861;BME280;75116;42.644;23.274;2024-02-16T12:38:05;93354.66;;;8.48;47.52
84861;BME280;75116;42.644;23.274;2024-02-16T12:40:31;93352.94;;;9.17;44.95
84861;BME280;75116;42.644;23.274;2024-02-16T12:42:56;93351.28;;;9.04;45.93
84861;BME280;75116;42.644;23.274;2024-02-16T12:45:22;93344.78;;;8.50;45.31
84861;BME280;75116;42.644;23.274;2024-02-16T12:47:47;93307.94;;;9.10;46.67
84861;BME280;75116;42.644;23.274;2024-02-16T12:50:14;93357.03;;;8.92;46.26
84861;BME280;75116;42.644;23.274;2024-02-16T12:52:39;93352.41;;;8.24;47.31
84861;BME280;75116;42.644;23.274;2024-02-16T12:55:06;93354.94;;;8.06;47.46